sensor_id;sensor_type;location;lat;lon;timestamp;P1;durP1;ratioP1;P2;durP2;ratioP2
18334;SDS011;9293;49.524;10.964;2022-12-24T00:01:19;8.95;;;1.80;;
18334;SDS011;9293;49.524;10.964;2022-12-24T00:03:47;7.57;;;1.63;;
18334;SDS011;9293;49.524;10.964;2022-12-24T00:06:17;10.45;;;2.30;;
18334;SDS011;9293;49.524;10.964;2022-12-24T00:08:46;11.43;;;2.57;;
18334;SDS011;9293;49.524;10.964;2022-12-24T00:11:15;7.78;;;2.20;;
18334;SDS011;9293;49.524;10.964;2022-12-24T00:13:43;13.25;;;2.67;;
18334;SDS011;9293;49.524;10.964;2022-12-24T00:16:11;9.20;;;2.60;;
18334;SDS011;9293;49.524;10.964;2022-12-24T00:18:40;9.13;;;2.20;;
18334;SDS011;9293;49.524;10.964;2022-12-24T00:21:12;9.15;;;2.80;;
18334;SDS011;9293;49.524;10.964;2022-12-24T00:23:43;6.55;;;1.83;;
18334;SDS011;9293;49.524;10.964;2022-12-24T00:26:11;11.80;;;1.90;;
18334;SDS011;9293;49.524;10.964;2022-12-24T00:28:40;5.65;;;1.75;;
18334;SDS011;9293;49.524;10.964;2022-12-24T00:31:09;10.93;;;1.83;;
18334;SDS011;9293;49.524;10.964;2022-12-24T00:33:39;8.98;;;1.73;;
18334;SDS011;9293;49.524;10.964;2022-12-24T00:36:07;7.15;;;1.80;;
18334;SDS011;9293;49.524;10.964;2022-12-24T00:38:36;7.10;;;1.83;;
18334;SDS011;9293;49.524;10.964;2022-12-24T00:41:05;8.05;;;1.80;;
18334;SDS011;9293;49.524;10.964;2022-12-24T00:46:25;7.93;;;1.85;;
18334;SDS011;9293;49.524;10.964;2022-12-24T00:48:56;10.23;;;1.80;;
18334;SDS011;9293;49.524;10.964;2022-12-24T00:51:24;6.55;;;1.95;;
18334;SDS011;9293;49.524;10.964;2022-12-24T00:53:52;8.82;;;1.63;;
18334;SDS011;9293;49.524;10.964;2022-12-24T00:56:20;9.07;;;1.70;;
18334;SDS011;9293;49.524;10.964;2022-12-24T00:58:49;11.93;;;2.20;;
18334;SDS011;9293;49.524;10.964;2022-12-24T01:01:17;7.60;;;1.20;;
18334;SDS011;9293;49.524;10.964;2022-12-24T01:03:46;8.48;;;2.15;;
18334;SDS011;9293;49.524;10.964;2022-12-24T01:06:16;9.05;;;1.98;;
18334;SDS011;9293;49.524;10.964;2022-12-24T01:11:17;8.00;;;1.65;;
18334;SDS011;9293;49.524;10.964;2022-12-24T01:13:45;6.00;;;1.77;;
18334;SDS011;9293;49.524;10.964;2022-12-24T01:16:15;8.05;;;2.03;;
18334;SDS011;9293;49.524;10.964;2022-12-24T01:18:45;8.95;;;1.85;;
18334;SDS011;9293;49.524;10.964;2022-12-24T01:21:13;6.68;;;1.38;;
18334;SDS011;9293;49.524;10.964;2022-12-24T01:23:42;9.68;;;1.80;;
18334;SDS011;9293;49.524;10.964;2022-12-24T01:26:10;8.15;;;1.63;;
18334;SDS011;9293;49.524;10.964;2022-12-24T01:28:39;6.70;;;1.50;;
18334;SDS011;9293;49.524;10.964;2022-12-24T01:31:11;5.93;;;1.50;;
18334;SDS011;9293;49.524;10.964;2022-12-24T01:33:40;9.30;;;2.17;;
18334;SDS011;9293;49.524;10.964;2022-12-24T01:36:09;12.05;;;2.10;;
18334;SDS011;9293;49.524;10.964;2022-12-24T01:38:38;5.72;;;1.50;;
18334;SDS011;9293;49.524;10.964;2022-12-24T01:41:06;7.63;;;1.85;;
18334;SDS011;9293;49.524;10.964;2022-12-24T01:44:14;11.50;;;1.83;;
18334;SDS011;9293;49.524;10.964;2022-12-24T01:49:34;7.38;;;2.05;;
18334;SDS011;9293;49.524;10.964;2022-12-24T01:52:04;14.05;;;2.72;;
18334;SDS011;9293;49.524;10.964;2022-12-24T01:55:18;12.77;;;2.05;;
18334;SDS011;9293;49.524;10.964;2022-12-24T01:57:37;16.42;;;2.35;;
18334;SDS011;9293;49.524;10.964;2022-12-24T02:00:09;9.65;;;2.22;;
18334;SDS011;9293;49.524;10.964;2022-12-24T02:02:43;8.30;;;1.60;;
18334;SDS011;9293;49.524;10.964;2022-12-24T02:05:14;8.38;;;1.77;;
18334;SDS011;9293;49.524;10.964;2022-12-24T02:07:49;9.52;;;1.77;;
18334;SDS011;9293;49.524;10.964;2022-12-24T02:10:18;5.88;;;1.88;;
18334;SDS011;9293;49.524;10.964;2022-12-24T02:12:46;8.90;;;2.00;;
18334;SDS011;9293;49.524;10.964;2022-12-24T02:15:16;10.80;;;1.83;;
18334;SDS011;9293;49.524;10.964;2022-12-24T02:17:58;12.80;;;2.08;;
18334;SDS011;9293;49.524;10.964;2022-12-24T02:23:36;12.80;;;2.35;;
18334;SDS011;9293;49.524;10.964;2022-12-24T02:26:33;9.00;;;1.92;;
18334;SDS011;9293;49.524;10.964;2022-12-24T02:34:56;10.15;;;1.90;;
18334;SDS011;9293;49.524;10.964;2022-12-24T02:38:11;9.75;;;2.30;;
18334;SDS011;9293;49.524;10.964;2022-12-24T02:40:37;10.23;;;2.13;;
18334;SDS011;9293;49.524;10.964;2022-12-24T02:43:12;6.75;;;1.77;;
18334;SDS011;9293;49.524;10.964;2022-12-24T02:45:45;13.60;;;2.53;;
18334;SDS011;9293;49.524;10.964;2022-12-24T02:48:24;11.13;;;1.80;;
18334;SDS011;9293;49.524;10.964;2022-12-24T02:50:54;6.82;;;1.83;;
18334;SDS011;9293;49.524;10.964;2022-12-24T02:53:23;12.07;;;2.28;;
18334;SDS011;9293;49.524;10.964;2022-12-24T03:03:59;8.80;;;2.08;;
18334;SDS011;9293;49.524;10.964;2022-12-24T03:06:56;10.90;;;2.28;;
18334;SDS011;9293;49.524;10.964;2022-12-24T03:12:18;13.40;;;2.10;;
18334;SDS011;9293;49.524;10.964;2022-12-24T03:14:53;10.10;;;2.20;;
18334;SDS011;9293;49.524;10.964;2022-12-24T03:17:21;9.40;;;2.10;;
18334;SDS011;9293;49.524;10.964;2022-12-24T03:19:49;12.38;;;2.38;;
18334;SDS011;9293;49.524;10.964;2022-12-24T03:22:17;15.55;;;2.80;;
18334;SDS011;9293;49.524;10.964;2022-12-24T03:24:46;9.25;;;1.88;;
18334;SDS011;9293;49.524;10.964;2022-12-24T03:27:14;9.02;;;1.48;;
18334;SDS011;9293;49.524;10.964;2022-12-24T03:29:43;11.77;;;2.10;;
18334;SDS011;9293;49.524;10.964;2022-12-24T03:32:12;15.20;;;2.55;;
18334;SDS011;9293;49.524;10.964;2022-12-24T03:34:40;10.75;;;2.17;;
18334;SDS011;9293;49.524;10.964;2022-12-24T03:37:08;10.82;;;2.30;;
18334;SDS011;9293;49.524;10.964;2022-12-24T03:39:36;7.03;;;1.77;;
18334;SDS011;9293;49.524;10.964;2022-12-24T03:42:04;13.32;;;2.50;;
18334;SDS011;9293;49.524;10.964;2022-12-24T03:44:32;12.20;;;2.17;;
18334;SDS011;9293;49.524;10.964;2022-12-24T03:46:59;11.18;;;2.05;;
18334;SDS011;9293;49.524;10.964;2022-12-24T03:49:27;9.32;;;2.05;;
18334;SDS011;9293;49.524;10.964;2022-12-24T03:51:55;11.60;;;2.70;;
18334;SDS011;9293;49.524;10.964;2022-12-24T03:54:23;8.73;;;2.10;;
18334;SDS011;9293;49.524;10.964;2022-12-24T03:56:51;10.77;;;1.83;;
18334;SDS011;9293;49.524;10.964;2022-12-24T03:59:19;9.45;;;2.00;;
18334;SDS011;9293;49.524;10.964;2022-12-24T04:01:47;8.63;;;1.80;;
18334;SDS011;9293;49.524;10.964;2022-12-24T04:04:16;11.05;;;2.33;;
18334;SDS011;9293;49.524;10.964;2022-12-24T04:06:44;8.18;;;1.85;;
18334;SDS011;9293;49.524;10.964;2022-12-24T04:09:12;13.00;;;2.63;;
18334;SDS011;9293;49.524;10.964;2022-12-24T04:11:40;9.95;;;1.52;;
18334;SDS011;9293;49.524;10.964;2022-12-24T04:14:08;12.23;;;2.65;;
18334;SDS011;9293;49.524;10.964;2022-12-24T04:16:36;9.07;;;1.75;;
18334;SDS011;9293;49.524;10.964;2022-12-24T04:19:04;10.73;;;2.30;;
18334;SDS011;9293;49.524;10.964;2022-12-24T04:21:32;8.80;;;1.63;;
18334;SDS011;9293;49.524;10.964;2022-12-24T04:24:00;7.85;;;1.48;;
18334;SDS011;9293;49.524;10.964;2022-12-24T04:26:28;9.75;;;1.83;;
18334;SDS011;9293;49.524;10.964;2022-12-24T04:28:56;8.85;;;2.28;;
18334;SDS011;9293;49.524;10.964;2022-12-24T04:31:24;10.60;;;2.20;;
18334;SDS011;9293;49.524;10.964;2022-12-24T04:33:52;9.43;;;1.92;;
18334;SDS011;9293;49.524;10.964;2022-12-24T04:36:20;9.20;;;1.52;;
18334;SDS011;9293;49.524;10.964;2022-12-24T04:38:48;8.70;;;1.80;;
18334;SDS011;9293;49.524;10.964;2022-12-24T04:41:18;11.90;;;2.10;;
18334;SDS011;9293;49.524;10.964;2022-12-24T04:43:50;9.35;;;1.63;;
18334;SDS011;9293;49.524;10.964;2022-12-24T04:46:19;9.05;;;1.85;;
18334;SDS011;9293;49.524;10.964;2022-12-24T04:48:50;7.75;;;1.45;;
18334;SDS011;9293;49.524;10.964;2022-12-24T04:51:22;9.50;;;2.25;;
18334;SDS011;9293;49.524;10.964;2022-12-24T04:53:55;10.25;;;1.73;;
18334;SDS011;9293;49.524;10.964;2022-12-24T04:56:24;9.38;;;2.13;;
18334;SDS011;9293;49.524;10.964;2022-12-24T04:58:55;7.05;;;1.85;;
18334;SDS011;9293;49.524;10.964;2022-12-24T05:01:26;13.70;;;1.50;;
18334;SDS011;9293;49.524;10.964;2022-12-24T05:03:56;8.95;;;1.45;;
18334;SDS011;9293;49.524;10.964;2022-12-24T05:06:27;9.68;;;1.30;;
18334;SDS011;9293;49.524;10.964;2022-12-24T05:08:58;9.13;;;1.50;;
18334;SDS011;9293;49.524;10.964;2022-12-24T05:11:26;9.35;;;1.60;;
18334;SDS011;9293;49.524;10.964;2022-12-24T05:13:55;9.15;;;1.52;;
18334;SDS011;9293;49.524;10.964;2022-12-24T05:16:23;11.18;;;1.75;;
18334;SDS011;9293;49.524;10.964;2022-12-24T05:18:51;9.10;;;1.52;;
18334;SDS011;9293;49.524;10.964;2022-12-24T05:21:20;8.30;;;1.80;;
18334;SDS011;9293;49.524;10.964;2022-12-24T05:23:49;13.57;;;1.70;;
18334;SDS011;9293;49.524;10.964;2022-12-24T05:26:38;13.85;;;3.80;;
18334;SDS011;9293;49.524;10.964;2022-12-24T05:29:15;15.48;;;4.15;;
18334;SDS011;9293;49.524;10.964;2022-12-24T05:31:47;13.18;;;3.28;;
18334;SDS011;9293;49.524;10.964;2022-12-24T05:34:17;15.88;;;3.42;;
18334;SDS011;9293;49.524;10.964;2022-12-24T05:36:45;10.35;;;2.95;;
18334;SDS011;9293;49.524;10.964;2022-12-24T05:39:14;11.30;;;2.67;;
18334;SDS011;9293;49.524;10.964;2022-12-24T05:41:44;13.75;;;3.33;;
18334;SDS011;9293;49.524;10.964;2022-12-24T05:44:12;12.38;;;2.60;;
18334;SDS011;9293;49.524;10.964;2022-12-24T05:46:41;10.27;;;2.33;;
18334;SDS011;9293;49.524;10.964;2022-12-24T05:49:10;8.18;;;2.00;;
18334;SDS011;9293;49.524;10.964;2022-12-24T05:51:38;10.38;;;2.58;;
18334;SDS011;9293;49.524;10.964;2022-12-24T05:54:07;8.55;;;2.40;;
18334;SDS011;9293;49.524;10.964;2022-12-24T05:56:35;9.20;;;2.00;;
18334;SDS011;9293;49.524;10.964;2022-12-24T05:59:04;12.82;;;2.08;;
18334;SDS011;9293;49.524;10.964;2022-12-24T06:01:32;7.20;;;1.70;;
18334;SDS011;9293;49.524;10.964;2022-12-24T06:04:00;8.45;;;2.33;;
18334;SDS011;9293;49.524;10.964;2022-12-24T06:06:28;10.02;;;2.28;;
18334;SDS011;9293;49.524;10.964;2022-12-24T06:08:57;16.30;;;2.25;;
18334;SDS011;9293;49.524;10.964;2022-12-24T06:11:26;6.80;;;1.85;;
18334;SDS011;9293;49.524;10.964;2022-12-24T06:13:54;14.52;;;2.08;;
18334;SDS011;9293;49.524;10.964;2022-12-24T06:16:23;10.85;;;2.28;;
18334;SDS011;9293;49.524;10.964;2022-12-24T06:18:52;9.35;;;2.10;;
18334;SDS011;9293;49.524;10.964;2022-12-24T06:21:20;11.00;;;3.60;;
18334;SDS011;9293;49.524;10.964;2022-12-24T06:23:49;11.60;;;3.95;;
18334;SDS011;9293;49.524;10.964;2022-12-24T06:26:18;12.25;;;4.90;;
18334;SDS011;9293;49.524;10.964;2022-12-24T06:28:48;8.97;;;2.07;;
18334;SDS011;9293;49.524;10.964;2022-12-24T06:31:22;13.82;;;2.97;;
18334;SDS011;9293;49.524;10.964;2022-12-24T06:33:50;10.05;;;1.92;;
18334;SDS011;9293;49.524;10.964;2022-12-24T06:36:23;10.13;;;1.98;;
18334;SDS011;9293;49.524;10.964;2022-12-24T06:38:52;8.40;;;1.70;;
18334;SDS011;9293;49.524;10.964;2022-12-24T06:41:21;12.13;;;2.05;;
18334;SDS011;9293;49.524;10.964;2022-12-24T06:43:52;9.13;;;2.25;;
18334;SDS011;9293;49.524;10.964;2022-12-24T06:46:21;12.48;;;2.60;;
18334;SDS011;9293;49.524;10.964;2022-12-24T06:48:51;9.10;;;1.87;;
18334;SDS011;9293;49.524;10.964;2022-12-24T06:51:23;9.00;;;2.20;;
18334;SDS011;9293;49.524;10.964;2022-12-24T06:53:53;16.98;;;5.00;;
18334;SDS011;9293;49.524;10.964;2022-12-24T06:56:21;14.80;;;3.00;;
18334;SDS011;9293;49.524;10.964;2022-12-24T06:58:49;12.70;;;2.58;;
18334;SDS011;9293;49.524;10.964;2022-12-24T07:01:18;10.25;;;2.17;;
18334;SDS011;9293;49.524;10.964;2022-12-24T07:03:47;13.85;;;2.95;;
18334;SDS011;9293;49.524;10.964;2022-12-24T07:06:25;10.52;;;2.40;;
18334;SDS011;9293;49.524;10.964;2022-12-24T07:08:55;11.18;;;2.30;;
18334;SDS011;9293;49.524;10.964;2022-12-24T07:11:23;14.70;;;2.88;;
18334;SDS011;9293;49.524;10.964;2022-12-24T07:13:52;10.27;;;2.33;;
18334;SDS011;9293;49.524;10.964;2022-12-24T07:16:20;13.18;;;3.17;;
18334;SDS011;9293;49.524;10.964;2022-12-24T07:18:49;14.65;;;2.35;;
18334;SDS011;9293;49.524;10.964;2022-12-24T07:21:17;44.67;;;24.48;;
18334;SDS011;9293;49.524;10.964;2022-12-24T07:23:45;15.00;;;3.65;;
18334;SDS011;9293;49.524;10.964;2022-12-24T07:26:13;14.20;;;3.00;;
18334;SDS011;9293;49.524;10.964;2022-12-24T07:28:41;9.73;;;2.40;;
18334;SDS011;9293;49.524;10.964;2022-12-24T07:31:09;16.10;;;2.63;;
18334;SDS011;9293;49.524;10.964;2022-12-24T07:33:37;23.95;;;5.85;;
18334;SDS011;9293;49.524;10.964;2022-12-24T07:36:06;15.30;;;3.72;;
18334;SDS011;9293;49.524;10.964;2022-12-24T07:38:39;23.83;;;3.70;;
18334;SDS011;9293;49.524;10.964;2022-12-24T07:41:13;12.40;;;3.13;;
18334;SDS011;9293;49.524;10.964;2022-12-24T07:43:41;12.40;;;3.00;;
18334;SDS011;9293;49.524;10.964;2022-12-24T07:46:09;12.68;;;3.17;;
18334;SDS011;9293;49.524;10.964;2022-12-24T07:48:37;17.88;;;3.00;;
18334;SDS011;9293;49.524;10.964;2022-12-24T07:51:05;13.95;;;3.20;;
18334;SDS011;9293;49.524;10.964;2022-12-24T07:53:34;13.68;;;3.22;;
18334;SDS011;9293;49.524;10.964;2022-12-24T07:56:02;14.00;;;3.53;;
18334;SDS011;9293;49.524;10.964;2022-12-24T07:58:37;14.00;;;3.33;;
18334;SDS011;9293;49.524;10.964;2022-12-24T08:01:05;16.15;;;3.22;;
18334;SDS011;9293;49.524;10.964;2022-12-24T08:03:33;13.18;;;3.05;;
18334;SDS011;9293;49.524;10.964;2022-12-24T08:06:01;16.13;;;3.25;;
18334;SDS011;9293;49.524;10.964;2022-12-24T08:08:30;17.38;;;3.30;;
18334;SDS011;9293;49.524;10.964;2022-12-24T08:11:01;16.30;;;3.22;;
18334;SDS011;9293;49.524;10.964;2022-12-24T08:13:34;16.25;;;3.28;;
18334;SDS011;9293;49.524;10.964;2022-12-24T08:16:03;14.40;;;3.80;;
18334;SDS011;9293;49.524;10.964;2022-12-24T08:18:31;19.20;;;3.80;;
18334;SDS011;9293;49.524;10.964;2022-12-24T08:20:59;21.13;;;3.88;;
18334;SDS011;9293;49.524;10.964;2022-12-24T08:23:27;21.25;;;3.92;;
18334;SDS011;9293;49.524;10.964;2022-12-24T08:25:55;17.50;;;4.18;;
18334;SDS011;9293;49.524;10.964;2022-12-24T08:28:23;18.17;;;3.70;;
18334;SDS011;9293;49.524;10.964;2022-12-24T08:30:51;14.15;;;3.97;;
18334;SDS011;9293;49.524;10.964;2022-12-24T08:33:20;16.33;;;3.35;;
18334;SDS011;9293;49.524;10.964;2022-12-24T08:35:49;14.27;;;3.38;;
18334;SDS011;9293;49.524;10.964;2022-12-24T08:38:19;15.85;;;3.45;;
18334;SDS011;9293;49.524;10.964;2022-12-24T08:40:59;21.58;;;4.43;;
18334;SDS011;9293;49.524;10.964;2022-12-24T08:43:32;16.48;;;3.67;;
18334;SDS011;9293;49.524;10.964;2022-12-24T08:46:08;15.15;;;3.63;;
18334;SDS011;9293;49.524;10.964;2022-12-24T08:48:37;17.95;;;3.58;;
18334;SDS011;9293;49.524;10.964;2022-12-24T08:51:06;17.33;;;3.75;;
18334;SDS011;9293;49.524;10.964;2022-12-24T08:53:36;19.80;;;3.80;;
18334;SDS011;9293;49.524;10.964;2022-12-24T08:56:05;20.92;;;3.38;;
18334;SDS011;9293;49.524;10.964;2022-12-24T08:58:35;26.48;;;4.78;;
18334;SDS011;9293;49.524;10.964;2022-12-24T09:01:11;17.58;;;3.95;;
18334;SDS011;9293;49.524;10.964;2022-12-24T09:03:47;20.75;;;3.80;;
18334;SDS011;9293;49.524;10.964;2022-12-24T09:06:15;13.30;;;3.67;;
18334;SDS011;9293;49.524;10.964;2022-12-24T09:08:43;19.38;;;3.70;;
18334;SDS011;9293;49.524;10.964;2022-12-24T09:11:13;15.75;;;3.55;;
18334;SDS011;9293;49.524;10.964;2022-12-24T09:13:43;13.35;;;3.63;;
18334;SDS011;9293;49.524;10.964;2022-12-24T09:16:11;17.83;;;4.22;;
18334;SDS011;9293;49.524;10.964;2022-12-24T09:18:40;16.00;;;3.78;;
18334;SDS011;9293;49.524;10.964;2022-12-24T09:21:12;15.93;;;3.53;;
18334;SDS011;9293;49.524;10.964;2022-12-24T09:23:42;11.20;;;3.22;;
18334;SDS011;9293;49.524;10.964;2022-12-24T09:26:16;21.88;;;3.90;;
18334;SDS011;9293;49.524;10.964;2022-12-24T09:28:49;11.38;;;3.65;;
18334;SDS011;9293;49.524;10.964;2022-12-24T09:31:18;15.52;;;3.58;;
18334;SDS011;9293;49.524;10.964;2022-12-24T09:33:47;18.30;;;3.90;;
18334;SDS011;9293;49.524;10.964;2022-12-24T09:36:16;14.93;;;4.10;;
18334;SDS011;9293;49.524;10.964;2022-12-24T09:38:44;16.17;;;3.40;;
18334;SDS011;9293;49.524;10.964;2022-12-24T09:41:57;16.63;;;2.92;;
18334;SDS011;9293;49.524;10.964;2022-12-24T09:49:42;15.70;;;3.58;;
18334;SDS011;9293;49.524;10.964;2022-12-24T09:52:15;13.88;;;3.28;;
18334;SDS011;9293;49.524;10.964;2022-12-24T09:54:57;17.92;;;3.28;;
18334;SDS011;9293;49.524;10.964;2022-12-24T09:57:35;18.83;;;3.28;;
18334;SDS011;9293;49.524;10.964;2022-12-24T10:00:51;18.45;;;3.65;;
18334;SDS011;9293;49.524;10.964;2022-12-24T10:03:20;13.20;;;2.90;;
18334;SDS011;9293;49.524;10.964;2022-12-24T10:08:45;20.92;;;4.13;;
18334;SDS011;9293;49.524;10.964;2022-12-24T10:11:44;17.98;;;3.78;;
18334;SDS011;9293;49.524;10.964;2022-12-24T10:17:02;21.73;;;3.58;;
18334;SDS011;9293;49.524;10.964;2022-12-24T10:19:56;19.92;;;3.47;;
18334;SDS011;9293;49.524;10.964;2022-12-24T10:25:41;16.23;;;3.10;;
18334;SDS011;9293;49.524;10.964;2022-12-24T10:28:50;23.85;;;3.88;;
18334;SDS011;9293;49.524;10.964;2022-12-24T10:31:27;15.23;;;3.20;;
18334;SDS011;9293;49.524;10.964;2022-12-24T10:34:03;19.48;;;4.38;;
18334;SDS011;9293;49.524;10.964;2022-12-24T10:36:38;21.65;;;3.88;;
18334;SDS011;9293;49.524;10.964;2022-12-24T10:39:12;13.57;;;3.42;;
18334;SDS011;9293;49.524;10.964;2022-12-24T10:41:52;21.10;;;3.15;;
18334;SDS011;9293;49.524;10.964;2022-12-24T10:44:25;17.45;;;3.63;;
18334;SDS011;9293;49.524;10.964;2022-12-24T10:46:56;15.70;;;3.40;;
18334;SDS011;9293;49.524;10.964;2022-12-24T10:49:31;17.70;;;3.42;;
18334;SDS011;9293;49.524;10.964;2022-12-24T10:52:21;19.10;;;3.88;;
18334;SDS011;9293;49.524;10.964;2022-12-24T10:55:10;21.30;;;3.38;;
18334;SDS011;9293;49.524;10.964;2022-12-24T10:58:06;24.25;;;4.15;;
18334;SDS011;9293;49.524;10.964;2022-12-24T11:00:41;20.87;;;3.93;;
18334;SDS011;9293;49.524;10.964;2022-12-24T11:03:23;14.82;;;3.00;;
18334;SDS011;9293;49.524;10.964;2022-12-24T11:08:31;17.85;;;3.60;;
18334;SDS011;9293;49.524;10.964;2022-12-24T11:11:05;21.02;;;3.95;;
18334;SDS011;9293;49.524;10.964;2022-12-24T11:13:43;18.88;;;4.20;;
18334;SDS011;9293;49.524;10.964;2022-12-24T11:16:28;16.75;;;3.30;;
18334;SDS011;9293;49.524;10.964;2022-12-24T11:19:05;16.27;;;2.97;;
18334;SDS011;9293;49.524;10.964;2022-12-24T11:21:42;12.35;;;2.53;;
18334;SDS011;9293;49.524;10.964;2022-12-24T11:26:41;14.85;;;3.50;;
18334;SDS011;9293;49.524;10.964;2022-12-24T11:29:26;17.17;;;3.53;;
18334;SDS011;9293;49.524;10.964;2022-12-24T11:34:53;16.08;;;3.45;;
18334;SDS011;9293;49.524;10.964;2022-12-24T11:37:22;15.85;;;3.13;;
18334;SDS011;9293;49.524;10.964;2022-12-24T11:39:52;17.20;;;2.97;;
18334;SDS011;9293;49.524;10.964;2022-12-24T11:45:27;15.02;;;3.22;;
18334;SDS011;9293;49.524;10.964;2022-12-24T11:47:55;17.67;;;3.30;;
18334;SDS011;9293;49.524;10.964;2022-12-24T11:50:25;18.73;;;3.38;;
18334;SDS011;9293;49.524;10.964;2022-12-24T11:58:24;17.50;;;3.63;;
18334;SDS011;9293;49.524;10.964;2022-12-24T12:01:11;18.52;;;3.35;;
18334;SDS011;9293;49.524;10.964;2022-12-24T12:04:01;17.83;;;2.92;;
18334;SDS011;9293;49.524;10.964;2022-12-24T12:09:24;13.88;;;2.92;;
18334;SDS011;9293;49.524;10.964;2022-12-24T12:11:57;13.95;;;3.25;;
18334;SDS011;9293;49.524;10.964;2022-12-24T12:14:30;16.02;;;3.88;;
18334;SDS011;9293;49.524;10.964;2022-12-24T12:19:59;13.73;;;3.08;;
18334;SDS011;9293;49.524;10.964;2022-12-24T12:28:57;22.00;;;3.45;;
18334;SDS011;9293;49.524;10.964;2022-12-24T12:31:41;16.92;;;3.00;;
18334;SDS011;9293;49.524;10.964;2022-12-24T12:34:19;16.63;;;3.47;;
18334;SDS011;9293;49.524;10.964;2022-12-24T12:36:53;16.73;;;3.20;;
18334;SDS011;9293;49.524;10.964;2022-12-24T12:39:40;16.17;;;3.50;;
18334;SDS011;9293;49.524;10.964;2022-12-24T12:50:06;18.80;;;3.63;;
18334;SDS011;9293;49.524;10.964;2022-12-24T12:58:26;17.73;;;3.58;;
18334;SDS011;9293;49.524;10.964;2022-12-24T13:01:25;18.88;;;3.17;;
18334;SDS011;9293;49.524;10.964;2022-12-24T13:15:55;15.32;;;3.17;;
18334;SDS011;9293;49.524;10.964;2022-12-24T13:21:13;19.05;;;3.45;;
18334;SDS011;9293;49.524;10.964;2022-12-24T13:23:44;13.63;;;2.72;;
18334;SDS011;9293;49.524;10.964;2022-12-24T13:26:12;17.70;;;3.40;;
18334;SDS011;9293;49.524;10.964;2022-12-24T13:28:42;17.20;;;3.35;;
18334;SDS011;9293;49.524;10.964;2022-12-24T13:49:31;11.05;;;2.45;;
18334;SDS011;9293;49.524;10.964;2022-12-24T14:00:04;12.93;;;2.97;;
18334;SDS011;9293;49.524;10.964;2022-12-24T14:16:31;16.55;;;2.78;;
18334;SDS011;9293;49.524;10.964;2022-12-24T14:19:18;16.02;;;3.45;;
18334;SDS011;9293;49.524;10.964;2022-12-24T14:21:52;14.38;;;3.20;;
18334;SDS011;9293;49.524;10.964;2022-12-24T14:24:45;20.58;;;3.63;;
18334;SDS011;9293;49.524;10.964;2022-12-24T14:27:35;14.85;;;2.90;;
18334;SDS011;9293;49.524;10.964;2022-12-24T14:32:46;14.90;;;2.85;;
18334;SDS011;9293;49.524;10.964;2022-12-24T14:37:56;13.20;;;3.83;;
18334;SDS011;9293;49.524;10.964;2022-12-24T14:40:42;19.67;;;3.40;;
18334;SDS011;9293;49.524;10.964;2022-12-24T14:52:02;16.10;;;3.85;;
18334;SDS011;9293;49.524;10.964;2022-12-24T15:00:54;14.40;;;3.25;;
18334;SDS011;9293;49.524;10.964;2022-12-24T15:03:28;20.67;;;3.42;;
18334;SDS011;9293;49.524;10.964;2022-12-24T15:05:58;18.20;;;4.30;;
18334;SDS011;9293;49.524;10.964;2022-12-24T15:08:43;16.02;;;3.85;;
18334;SDS011;9293;49.524;10.964;2022-12-24T15:11:24;15.48;;;2.88;;
18334;SDS011;9293;49.524;10.964;2022-12-24T15:13:53;13.02;;;3.03;;
18334;SDS011;9293;49.524;10.964;2022-12-24T15:16:24;15.98;;;3.58;;
18334;SDS011;9293;49.524;10.964;2022-12-24T15:19:00;15.68;;;2.95;;
18334;SDS011;9293;49.524;10.964;2022-12-24T15:21:35;14.63;;;2.97;;
18334;SDS011;9293;49.524;10.964;2022-12-24T15:24:27;12.15;;;3.00;;
18334;SDS011;9293;49.524;10.964;2022-12-24T15:26:59;11.63;;;3.55;;
18334;SDS011;9293;49.524;10.964;2022-12-24T15:29:30;17.17;;;3.22;;
18334;SDS011;9293;49.524;10.964;2022-12-24T15:32:02;14.65;;;3.25;;
18334;SDS011;9293;49.524;10.964;2022-12-24T15:34:42;16.13;;;3.22;;
18334;SDS011;9293;49.524;10.964;2022-12-24T15:37:18;13.40;;;3.67;;
18334;SDS011;9293;49.524;10.964;2022-12-24T15:39:55;16.95;;;4.10;;
18334;SDS011;9293;49.524;10.964;2022-12-24T15:42:26;14.60;;;3.95;;
18334;SDS011;9293;49.524;10.964;2022-12-24T15:48:09;14.70;;;4.50;;
18334;SDS011;9293;49.524;10.964;2022-12-24T15:50:45;19.95;;;4.05;;
18334;SDS011;9293;49.524;10.964;2022-12-24T15:53:16;18.88;;;3.92;;
18334;SDS011;9293;49.524;10.964;2022-12-24T15:56:05;14.38;;;3.60;;
18334;SDS011;9293;49.524;10.964;2022-12-24T16:06:21;16.77;;;3.72;;
18334;SDS011;9293;49.524;10.964;2022-12-24T16:08:53;15.45;;;3.70;;
18334;SDS011;9293;49.524;10.964;2022-12-24T16:11:23;13.57;;;4.07;;
18334;SDS011;9293;49.524;10.964;2022-12-24T16:14:03;16.73;;;3.90;;
18334;SDS011;9293;49.524;10.964;2022-12-24T16:16:42;19.50;;;3.80;;
18334;SDS011;9293;49.524;10.964;2022-12-24T16:19:17;13.18;;;2.78;;
18334;SDS011;9293;49.524;10.964;2022-12-24T16:21:59;16.23;;;3.65;;
18334;SDS011;9293;49.524;10.964;2022-12-24T16:24:52;16.15;;;4.18;;
18334;SDS011;9293;49.524;10.964;2022-12-24T16:27:21;13.05;;;3.70;;
18334;SDS011;9293;49.524;10.964;2022-12-24T16:29:49;15.48;;;4.40;;
18334;SDS011;9293;49.524;10.964;2022-12-24T16:32:31;13.45;;;3.80;;
18334;SDS011;9293;49.524;10.964;2022-12-24T16:35:01;13.60;;;3.67;;
18334;SDS011;9293;49.524;10.964;2022-12-24T16:40:00;18.30;;;3.92;;
18334;SDS011;9293;49.524;10.964;2022-12-24T16:42:27;15.80;;;3.92;;
18334;SDS011;9293;49.524;10.964;2022-12-24T16:45:14;13.73;;;4.18;;
18334;SDS011;9293;49.524;10.964;2022-12-24T16:47:43;16.58;;;4.13;;
18334;SDS011;9293;49.524;10.964;2022-12-24T16:50:14;11.48;;;3.85;;
18334;SDS011;9293;49.524;10.964;2022-12-24T16:55:13;18.45;;;4.88;;
18334;SDS011;9293;49.524;10.964;2022-12-24T16:57:45;13.27;;;4.70;;
18334;SDS011;9293;49.524;10.964;2022-12-24T17:00:20;17.30;;;4.50;;
18334;SDS011;9293;49.524;10.964;2022-12-24T17:02:49;21.20;;;5.55;;
18334;SDS011;9293;49.524;10.964;2022-12-24T17:05:18;20.63;;;5.40;;
18334;SDS011;9293;49.524;10.964;2022-12-24T17:07:50;20.40;;;5.63;;
18334;SDS011;9293;49.524;10.964;2022-12-24T17:10:18;23.63;;;7.40;;
18334;SDS011;9293;49.524;10.964;2022-12-24T17:12:46;21.38;;;7.80;;
18334;SDS011;9293;49.524;10.964;2022-12-24T17:15:14;21.98;;;7.50;;
18334;SDS011;9293;49.524;10.964;2022-12-24T17:17:42;19.92;;;7.93;;
18334;SDS011;9293;49.524;10.964;2022-12-24T17:20:10;24.63;;;6.78;;
18334;SDS011;9293;49.524;10.964;2022-12-24T17:22:45;21.13;;;4.80;;
18334;SDS011;9293;49.524;10.964;2022-12-24T17:25:13;20.15;;;5.22;;
18334;SDS011;9293;49.524;10.964;2022-12-24T17:27:42;16.83;;;5.13;;
18334;SDS011;9293;49.524;10.964;2022-12-24T17:30:11;21.42;;;7.03;;
18334;SDS011;9293;49.524;10.964;2022-12-24T17:32:39;20.90;;;6.60;;
18334;SDS011;9293;49.524;10.964;2022-12-24T17:35:07;23.63;;;6.50;;
18334;SDS011;9293;49.524;10.964;2022-12-24T17:37:36;25.10;;;7.18;;
18334;SDS011;9293;49.524;10.964;2022-12-24T17:40:04;21.10;;;6.93;;
18334;SDS011;9293;49.524;10.964;2022-12-24T17:42:32;17.42;;;6.50;;
18334;SDS011;9293;49.524;10.964;2022-12-24T17:45:00;20.50;;;6.72;;
18334;SDS011;9293;49.524;10.964;2022-12-24T17:47:28;16.92;;;5.95;;
18334;SDS011;9293;49.524;10.964;2022-12-24T17:49:57;17.02;;;5.97;;
18334;SDS011;9293;49.524;10.964;2022-12-24T17:52:25;20.95;;;5.75;;
18334;SDS011;9293;49.524;10.964;2022-12-24T17:54:54;13.57;;;4.15;;
18334;SDS011;9293;49.524;10.964;2022-12-24T17:57:22;23.50;;;5.35;;
18334;SDS011;9293;49.524;10.964;2022-12-24T17:59:50;16.90;;;4.57;;
18334;SDS011;9293;49.524;10.964;2022-12-24T18:02:19;23.50;;;5.35;;
18334;SDS011;9293;49.524;10.964;2022-12-24T18:04:47;19.08;;;4.90;;